sensor_id;sensor_type;location;lat;lon;timestamp;pressure;altitude;pressure_sealevel;temperature;humidity
9110;BME280;4590;51.462;6.692;2022-11-04T00:01:08;99945.66;;;12.89;68.26
9110;BME280;4590;51.462;6.692;2022-11-04T00:03:33;99953.47;;;12.87;68.16
9110;BME280;4590;51.462;6.692;2022-11-04T00:06:01;99949.09;;;12.86;67.79
9110;BME280;4590;51.462;6.692;2022-11-04T00:08:26;99958.06;;;12.83;67.86
9110;BME280;4590;51.462;6.692;2022-11-04T00:10:59;99956.63;;;12.77;67.44
9110;BME280;4590;51.462;6.692;2022-11-04T00:13:43;99958.72;;;12.80;67.87
9110;BME280;4590;51.462;6.692;2022-11-04T00:16:09;99956.53;;;12.73;67.69
9110;BME280;4590;51.462;6.692;2022-11-04T00:18:53;99961.25;;;12.73;67.88
9110;BME280;4590;51.462;6.692;2022-11-04T00:21:19;99971.47;;;12.72;67.70
9110;BME280;4590;51.462;6.692;2022-11-04T00:24:03;99959.63;;;12.72;67.76
9110;BME280;4590;51.462;6.692;2022-11-04T00:26:47;99965.81;;;12.69;67.82
9110;BME280;4590;51.462;6.692;2022-11-04T00:29:31;99974.91;;;12.69;67.93
9110;BME280;4590;51.462;6.692;2022-11-04T00:31:56;99987.31;;;12.63;68.11
9110;BME280;4590;51.462;6.692;2022-11-04T00:34:40;99996.06;;;12.65;67.68
9110;BME280;4590;51.462;6.692;2022-11-04T00:37:06;99997.53;;;12.62;67.89
9110;BME280;4590;51.462;6.692;2022-11-04T00:39:31;99993.03;;;12.58;67.93
9110;BME280;4590;51.462;6.692;2022-11-04T00:41:56;99998.66;;;12.61;67.79
9110;BME280;4590;51.462;6.692;2022-11-04T00:44:22;100008.09;;;12.60;67.84
9110;BME280;4590;51.462;6.692;2022-11-04T00:46:47;100010.75;;;12.57;67.98
9110;BME280;4590;51.462;6.692;2022-11-04T00:49:12;100019.13;;;12.60;67.91
9110;BME280;4590;51.462;6.692;2022-11-04T00:51:38;100013.50;;;12.57;68.51
9110;BME280;4590;51.462;6.692;2022-11-04T00:54:03;100017.88;;;12.58;68.44
9110;BME280;4590;51.462;6.692;2022-11-04T00:56:28;100034.31;;;12.54;68.67
9110;BME280;4590;51.462;6.692;2022-11-04T00:58:54;100025.22;;;12.54;68.80
9110;BME280;4590;51.462;6.692;2022-11-04T01:01:19;100028.44;;;12.56;68.77
9110;BME280;4590;51.462;6.692;2022-11-04T01:03:49;100038.53;;;12.52;69.06
9110;BME280;4590;51.462;6.692;2022-11-04T01:06:15;100029.78;;;12.50;68.80
9110;BME280;4590;51.462;6.692;2022-11-04T01:08:41;100028.31;;;12.52;68.68
9110;BME280;4590;51.462;6.692;2022-11-04T01:11:08;100026.53;;;12.48;69.11
9110;BME280;4590;51.462;6.692;2022-11-04T01:13:34;100026.69;;;12.51;68.94
9110;BME280;4590;51.462;6.692;2022-11-04T01:16:04;100017.94;;;12.49;69.11
9110;BME280;4590;51.462;6.692;2022-11-04T01:18:30;100035.31;;;12.50;69.20
9110;BME280;4590;51.462;6.692;2022-11-04T01:21:00;100041.38;;;12.43;69.25
9110;BME280;4590;51.462;6.692;2022-11-04T01:23:25;100043.31;;;12.43;69.15
9110;BME280;4590;51.462;6.692;2022-11-04T01:25:50;100055.16;;;12.43;69.52
9110;BME280;4590;51.462;6.692;2022-11-04T01:28:16;100059.50;;;12.44;69.45
9110;BME280;4590;51.462;6.692;2022-11-04T01:30:41;100057.56;;;12.45;69.32
9110;BME280;4590;51.462;6.692;2022-11-04T01:33:06;100069.75;;;12.44;68.97
9110;BME280;4590;51.462;6.692;2022-11-04T01:35:31;100080.59;;;12.49;69.25
9110;BME280;4590;51.462;6.692;2022-11-04T01:37:57;100080.72;;;12.52;69.14
9110;BME280;4590;51.462;6.692;2022-11-04T01:40:23;100079.25;;;12.55;69.28
9110;BME280;4590;51.462;6.692;2022-11-04T01:42:48;100078.94;;;12.56;69.11
9110;BME280;4590;51.462;6.692;2022-11-04T01:45:16;100089.16;;;12.56;69.62
9110;BME280;4590;51.462;6.692;2022-11-04T01:47:47;100091.91;;;12.56;69.49
9110;BME280;4590;51.462;6.692;2022-11-04T01:50:21;100084.13;;;12.58;69.40
9110;BME280;4590;51.462;6.692;2022-11-04T01:52:52;100097.56;;;12.59;69.13
9110;BME280;4590;51.462;6.692;2022-11-04T01:55:25;100093.31;;;12.62;69.17
9110;BME280;4590;51.462;6.692;2022-11-04T01:57:55;100092.50;;;12.61;68.93
9110;BME280;4590;51.462;6.692;2022-11-04T02:00:23;100090.56;;;12.62;69.26
9110;BME280;4590;51.462;6.692;2022-11-04T02:03:02;100090.09;;;12.60;69.17
9110;BME280;4590;51.462;6.692;2022-11-04T02:05:29;100102.88;;;12.64;68.95
9110;BME280;4590;51.462;6.692;2022-11-04T02:07:57;100089.09;;;12.64;69.14
9110;BME280;4590;51.462;6.692;2022-11-04T02:10:26;100091.03;;;12.64;69.18
9110;BME280;4590;51.462;6.692;2022-11-04T02:12:53;100093.78;;;12.64;69.31
9110;BME280;4590;51.462;6.692;2022-11-04T02:15:47;100083.81;;;12.51;69.12
9110;BME280;4590;51.462;6.692;2022-11-04T02:40:22;100092.53;;;12.32;68.56
9110;BME280;4590;51.462;6.692;2022-11-04T02:42:57;100095.16;;;12.28;68.33
9110;BME280;4590;51.462;6.692;2022-11-04T02:45:34;100097.50;;;12.18;68.70
9110;BME280;4590;51.462;6.692;2022-11-04T02:48:07;100094.06;;;12.21;68.63
9110;BME280;4590;51.462;6.692;2022-11-04T02:50:42;100100.09;;;12.14;68.66
9110;BME280;4590;51.462;6.692;2022-11-04T02:53:14;100096.88;;;12.12;68.44
9110;BME280;4590;51.462;6.692;2022-11-04T02:55:44;100101.25;;;12.13;68.78
9110;BME280;4590;51.462;6.692;2022-11-04T02:58:15;100090.41;;;12.08;68.09
9110;BME280;4590;51.462;6.692;2022-11-04T03:00:42;100095.28;;;12.03;68.73
9110;BME280;4590;51.462;6.692;2022-11-04T03:03:13;100094.38;;;11.90;69.74
9110;BME280;4590;51.462;6.692;2022-11-04T03:05:41;100094.22;;;11.95;68.72
9110;BME280;4590;51.462;6.692;2022-11-04T03:08:16;100092.59;;;11.94;68.62
9110;BME280;4590;51.462;6.692;2022-11-04T03:10:49;100095.53;;;11.89;69.03
9110;BME280;4590;51.462;6.692;2022-11-04T03:13:23;100091.97;;;11.88;68.78
9110;BME280;4590;51.462;6.692;2022-11-04T03:15:53;100087.59;;;11.87;68.96
9110;BME280;4590;51.462;6.692;2022-11-04T03:18:31;100092.63;;;11.85;68.74
9110;BME280;4590;51.462;6.692;2022-11-04T03:21:01;100090.66;;;11.86;68.49
9110;BME280;4590;51.462;6.692;2022-11-04T03:23:27;100092.94;;;11.84;68.59
9110;BME280;4590;51.462;6.692;2022-11-04T03:25:58;100095.22;;;11.82;68.71
9110;BME280;4590;51.462;6.692;2022-11-04T03:28:42;100098.47;;;11.75;68.56
9110;BME280;4590;51.462;6.692;2022-11-04T03:31:15;100096.56;;;11.76;68.74
9110;BME280;4590;51.462;6.692;2022-11-04T03:33:49;100090.53;;;11.74;68.56
9110;BME280;4590;51.462;6.692;2022-11-04T03:36:15;100100.41;;;11.75;68.42
9110;BME280;4590;51.462;6.692;2022-11-04T03:38:41;100109.81;;;11.74;68.72
9110;BME280;4590;51.462;6.692;2022-11-04T03:41:12;100109.66;;;11.70;68.75
9110;BME280;4590;51.462;6.692;2022-11-04T03:43:40;100114.38;;;11.70;68.73
9110;BME280;4590;51.462;6.692;2022-11-04T03:46:05;100124.94;;;11.59;69.25
9110;BME280;4590;51.462;6.692;2022-11-04T03:48:31;100114.69;;;11.68;68.78
9110;BME280;4590;51.462;6.692;2022-11-04T03:50:57;100118.91;;;11.66;68.47
9110;BME280;4590;51.462;6.692;2022-11-04T03:53:23;100112.94;;;11.64;68.35
9110;BME280;4590;51.462;6.692;2022-11-04T03:58:46;100121.03;;;11.60;68.74
9110;BME280;4590;51.462;6.692;2022-11-04T04:04:40;100116.34;;;11.52;68.49
9110;BME280;4590;51.462;6.692;2022-11-04T04:07:17;100122.34;;;11.54;68.32
9110;BME280;4590;51.462;6.692;2022-11-04T04:09:49;100118.78;;;11.53;68.56
9110;BME280;4590;51.462;6.692;2022-11-04T04:12:37;100123.81;;;11.51;68.31
9110;BME280;4590;51.462;6.692;2022-11-04T04:15:12;100122.66;;;11.52;68.56
9110;BME280;4590;51.462;6.692;2022-11-04T04:17:52;100132.06;;;11.51;68.40
9110;BME280;4590;51.462;6.692;2022-11-04T04:20:22;100130.00;;;11.48;68.46
9110;BME280;4590;51.462;6.692;2022-11-04T04:22:57;100133.41;;;11.45;68.31
9110;BME280;4590;51.462;6.692;2022-11-04T04:25:27;100120.91;;;11.48;68.73
9110;BME280;4590;51.462;6.692;2022-11-04T04:28:13;100122.69;;;11.35;69.15
9110;BME280;4590;51.462;6.692;2022-11-04T04:30:41;100124.16;;;11.41;68.68
9110;BME280;4590;51.462;6.692;2022-11-04T04:33:12;100126.44;;;11.39;68.19
9110;BME280;4590;51.462;6.692;2022-11-04T04:35:42;100129.19;;;11.39;68.40
9110;BME280;4590;51.462;6.692;2022-11-04T04:38:25;100130.50;;;11.33;68.53
9110;BME280;4590;51.462;6.692;2022-11-04T04:41:17;100132.09;;;11.34;68.22
9110;BME280;4590;51.462;6.692;2022-11-04T04:44:02;100131.28;;;11.34;68.81
9110;BME280;4590;51.462;6.692;2022-11-04T04:46:48;100139.41;;;11.30;68.45
9110;BME280;4590;51.462;6.692;2022-11-04T04:49:16;100139.41;;;11.30;68.29
9110;BME280;4590;51.462;6.692;2022-11-04T04:51:43;100147.50;;;11.27;68.43
9110;BME280;4590;51.462;6.692;2022-11-04T04:54:09;100153.50;;;11.29;68.85
9110;BME280;4590;51.462;6.692;2022-11-04T04:56:35;100146.69;;;11.26;68.44
9110;BME280;4590;51.462;6.692;2022-11-04T04:59:00;100152.22;;;11.26;68.42
9110;BME280;4590;51.462;6.692;2022-11-04T05:01:25;100164.34;;;11.25;68.56
9110;BME280;4590;51.462;6.692;2022-11-04T05:03:51;100159.97;;;11.24;68.52
9110;BME280;4590;51.462;6.692;2022-11-04T05:06:16;100163.06;;;11.22;68.38
9110;BME280;4590;51.462;6.692;2022-11-04T05:08:41;100159.81;;;11.20;68.68
9110;BME280;4590;51.462;6.692;2022-11-04T05:11:06;100162.88;;;11.19;68.41
9110;BME280;4590;51.462;6.692;2022-11-04T05:13:32;100171.97;;;11.19;68.54
9110;BME280;4590;51.462;6.692;2022-11-04T05:16:04;100167.78;;;11.13;68.41
9110;BME280;4590;51.462;6.692;2022-11-04T05:18:29;100177.00;;;11.17;68.12
9110;BME280;4590;51.462;6.692;2022-11-04T05:20:55;100180.53;;;11.18;68.84
9110;BME280;4590;51.462;6.692;2022-11-04T05:23:20;100180.72;;;11.13;68.87
9110;BME280;4590;51.462;6.692;2022-11-04T05:25:45;100178.94;;;11.17;68.30
9110;BME280;4590;51.462;6.692;2022-11-04T05:28:11;100185.28;;;11.17;68.82
9110;BME280;4590;51.462;6.692;2022-11-04T05:30:37;100178.94;;;11.17;68.22
9110;BME280;4590;51.462;6.692;2022-11-04T05:33:02;100172.63;;;11.16;68.68
9110;BME280;4590;51.462;6.692;2022-11-04T05:35:27;100177.78;;;11.18;68.31
9110;BME280;4590;51.462;6.692;2022-11-04T05:37:54;100188.81;;;11.18;68.21
9110;BME280;4590;51.462;6.692;2022-11-04T05:40:20;100187.22;;;11.17;68.34
9110;BME280;4590;51.462;6.692;2022-11-04T05:42:45;100189.47;;;11.15;68.38
9110;BME280;4590;51.462;6.692;2022-11-04T05:45:11;100188.19;;;11.12;68.74
9110;BME280;4590;51.462;6.692;2022-11-04T05:47:36;100194.81;;;11.11;68.30
9110;BME280;4590;51.462;6.692;2022-11-04T05:50:01;100192.38;;;11.10;68.25
9110;BME280;4590;51.462;6.692;2022-11-04T05:52:26;100189.94;;;11.08;68.55
9110;BME280;4590;51.462;6.692;2022-11-04T05:54:52;100196.59;;;11.07;68.43
9110;BME280;4590;51.462;6.692;2022-11-04T05:57:17;100202.09;;;11.07;68.57
9110;BME280;4590;51.462;6.692;2022-11-04T05:59:42;100212.28;;;11.07;68.75
9110;BME280;4590;51.462;6.692;2022-11-04T06:02:08;100215.84;;;11.07;68.70
9110;BME280;4590;51.462;6.692;2022-11-04T06:04:34;100209.53;;;11.07;68.42
9110;BME280;4590;51.462;6.692;2022-11-04T06:06:59;100213.09;;;11.07;68.31
9110;BME280;4590;51.462;6.692;2022-11-04T06:09:24;100219.41;;;11.08;68.94
9110;BME280;4590;51.462;6.692;2022-11-04T06:12:11;100222.66;;;11.10;68.74
9110;BME280;4590;51.462;6.692;2022-11-04T06:14:39;100223.16;;;11.12;68.67
9110;BME280;4590;51.462;6.692;2022-11-04T06:17:04;100228.03;;;11.15;68.65
9110;BME280;4590;51.462;6.692;2022-11-04T06:19:29;100232.09;;;11.17;69.04
9110;BME280;4590;51.462;6.692;2022-11-04T06:21:54;100231.72;;;11.19;69.08
9110;BME280;4590;51.462;6.692;2022-11-04T06:24:20;100229.47;;;11.21;69.10
9110;BME280;4590;51.462;6.692;2022-11-04T06:26:45;100235.47;;;11.23;69.06
9110;BME280;4590;51.462;6.692;2022-11-04T06:29:10;100231.25;;;11.25;69.01
9110;BME280;4590;51.462;6.692;2022-11-04T06:31:36;100230.13;;;11.27;68.80
9110;BME280;4590;51.462;6.692;2022-11-04T06:34:02;100233.38;;;11.29;68.77
9110;BME280;4590;51.462;6.692;2022-11-04T06:36:27;100241.63;;;11.29;68.44
9110;BME280;4590;51.462;6.692;2022-11-04T06:38:53;100238.56;;;11.30;69.14
9110;BME280;4590;51.462;6.692;2022-11-04T06:41:18;100245.69;;;11.31;68.52
9110;BME280;4590;51.462;6.692;2022-11-04T06:43:43;100245.38;;;11.33;69.11
9110;BME280;4590;51.462;6.692;2022-11-04T06:46:27;100248.44;;;11.31;68.93
9110;BME280;4590;51.462;6.692;2022-11-04T06:48:54;100248.75;;;11.38;69.08
9110;BME280;4590;51.462;6.692;2022-11-04T06:51:20;100250.06;;;11.41;69.08
9110;BME280;4590;51.462;6.692;2022-11-04T06:53:45;100254.44;;;11.42;69.03
9110;BME280;4590;51.462;6.692;2022-11-04T06:56:10;100263.19;;;11.44;68.82
9110;BME280;4590;51.462;6.692;2022-11-04T06:58:36;100275.84;;;11.45;68.78
9110;BME280;4590;51.462;6.692;2022-11-04T07:01:01;100264.81;;;11.45;68.45
9110;BME280;4590;51.462;6.692;2022-11-04T07:03:26;100274.72;;;11.46;68.59
9110;BME280;4590;51.462;6.692;2022-11-04T07:05:51;100280.38;;;11.41;68.64
9110;BME280;4590;51.462;6.692;2022-11-04T07:08:17;100284.44;;;11.43;68.48
9110;BME280;4590;51.462;6.692;2022-11-04T07:10:43;100288.31;;;11.42;68.17
9110;BME280;4590;51.462;6.692;2022-11-04T07:13:08;100279.41;;;11.45;68.25
9110;BME280;4590;51.462;6.692;2022-11-04T07:15:33;100284.28;;;11.48;67.95
9110;BME280;4590;51.462;6.692;2022-11-04T07:17:59;100287.97;;;11.52;68.36
9110;BME280;4590;51.462;6.692;2022-11-04T07:20:24;100289.94;;;11.52;67.94
9110;BME280;4590;51.462;6.692;2022-11-04T07:22:49;100288.13;;;11.39;68.34
9110;BME280;4590;51.462;6.692;2022-11-04T07:25:15;100291.88;;;11.51;68.17
9110;BME280;4590;51.462;6.692;2022-11-04T07:27:40;100298.06;;;11.48;68.13
9110;BME280;4590;51.462;6.692;2022-11-04T07:30:06;100298.50;;;11.50;68.28
9110;BME280;4590;51.462;6.692;2022-11-04T07:32:31;100302.41;;;11.49;67.96
9110;BME280;4590;51.462;6.692;2022-11-04T07:34:57;100298.84;;;11.57;68.25
9110;BME280;4590;51.462;6.692;2022-11-04T07:37:22;100303.72;;;11.60;68.11
9110;BME280;4590;51.462;6.692;2022-11-04T07:39:47;100302.09;;;11.59;68.09
9110;BME280;4590;51.462;6.692;2022-11-04T07:42:12;100303.53;;;11.66;68.08
9110;BME280;4590;51.462;6.692;2022-11-04T07:44:38;100301.94;;;11.65;68.31
9110;BME280;4590;51.462;6.692;2022-11-04T07:47:03;100301.78;;;11.61;68.46
9110;BME280;4590;51.462;6.692;2022-11-04T07:49:28;100314.25;;;11.58;68.59
9110;BME280;4590;51.462;6.692;2022-11-04T07:51:54;100313.44;;;11.67;68.40
9110;BME280;4590;51.462;6.692;2022-11-04T07:54:19;100312.16;;;11.73;68.36
9110;BME280;4590;51.462;6.692;2022-11-04T07:56:44;100320.75;;;11.63;68.36
9110;BME280;4590;51.462;6.692;2022-11-04T07:59:09;100331.44;;;11.55;68.88
9110;BME280;4590;51.462;6.692;2022-11-04T08:01:35;100336.31;;;11.58;68.93
9110;BME280;4590;51.462;6.692;2022-11-04T08:04:02;100339.84;;;11.68;68.53
9110;BME280;4590;51.462;6.692;2022-11-04T08:06:29;100339.72;;;11.73;68.25
9110;BME280;4590;51.462;6.692;2022-11-04T08:08:57;100336.63;;;11.74;68.28
9110;BME280;4590;51.462;6.692;2022-11-04T08:11:24;100342.97;;;11.75;68.51
9110;BME280;4590;51.462;6.692;2022-11-04T08:13:53;100344.78;;;11.79;68.17
9110;BME280;4590;51.462;6.692;2022-11-04T08:16:20;100353.38;;;11.78;68.69
9110;BME280;4590;51.462;6.692;2022-11-04T08:18:47;100350.75;;;11.81;68.17
9110;BME280;4590;51.462;6.692;2022-11-04T08:21:14;100353.31;;;11.60;69.02
9110;BME280;4590;51.462;6.692;2022-11-04T08:23:40;100355.59;;;11.67;68.80
9110;BME280;4590;51.462;6.692;2022-11-04T08:26:10;100350.56;;;11.69;68.84
9110;BME280;4590;51.462;6.692;2022-11-04T08:28:36;100359.31;;;11.63;69.17
9110;BME280;4590;51.462;6.692;2022-11-04T08:31:13;100357.22;;;11.68;68.56
9110;BME280;4590;51.462;6.692;2022-11-04T08:33:39;100364.34;;;11.69;68.79
9110;BME280;4590;51.462;6.692;2022-11-04T08:36:08;100365.78;;;11.58;69.02
9110;BME280;4590;51.462;6.692;2022-11-04T08:38:34;100362.56;;;11.65;68.56
9110;BME280;4590;51.462;6.692;2022-11-04T08:41:02;100367.91;;;11.61;68.69
9110;BME280;4590;51.462;6.692;2022-11-04T08:43:28;100370.84;;;11.73;68.50
9110;BME280;4590;51.462;6.692;2022-11-04T08:45:53;100371.03;;;11.77;68.62
9110;BME280;4590;51.462;6.692;2022-11-04T08:48:19;100370.53;;;11.83;68.47
9110;BME280;4590;51.462;6.692;2022-11-04T08:50:51;100363.09;;;11.84;68.65
9110;BME280;4590;51.462;6.692;2022-11-04T08:53:17;100362.78;;;11.94;68.25
9110;BME280;4590;51.462;6.692;2022-11-04T08:55:42;100368.78;;;11.96;68.42
9110;BME280;4590;51.462;6.692;2022-11-04T08:58:08;100372.16;;;12.02;68.75
9110;BME280;4590;51.462;6.692;2022-11-04T09:00:33;100370.88;;;11.99;69.10
9110;BME280;4590;51.462;6.692;2022-11-04T09:02:59;100378.81;;;12.01;69.16
9110;BME280;4590;51.462;6.692;2022-11-04T09:05:24;100374.13;;;12.10;69.23
9110;BME280;4590;51.462;6.692;2022-11-04T09:07:50;100377.50;;;12.15;69.63
9110;BME280;4590;51.462;6.692;2022-11-04T09:10:16;100373.94;;;12.32;69.53
9110;BME280;4590;51.462;6.692;2022-11-04T09:12:42;100382.00;;;12.46;70.36
9110;BME280;4590;51.462;6.692;2022-11-04T09:15:07;100382.94;;;12.67;70.49
9110;BME280;4590;51.462;6.692;2022-11-04T09:17:33;100377.88;;;12.86;70.52
9110;BME280;4590;51.462;6.692;2022-11-04T09:19:58;100382.47;;;13.12;70.89
9110;BME280;4590;51.462;6.692;2022-11-04T09:22:23;100377.44;;;13.43;70.53
9110;BME280;4590;51.462;6.692;2022-11-04T09:24:49;100383.16;;;13.67;70.13
9110;BME280;4590;51.462;6.692;2022-11-04T09:27:14;100390.44;;;13.93;70.00
9110;BME280;4590;51.462;6.692;2022-11-04T09:29:39;100386.00;;;14.00;69.17
9110;BME280;4590;51.462;6.692;2022-11-04T09:32:06;100381.34;;;14.13;68.73
9110;BME280;4590;51.462;6.692;2022-11-04T09:34:32;100384.16;;;14.25;68.41
9110;BME280;4590;51.462;6.692;2022-11-04T09:36:57;100383.16;;;14.30;68.19
9110;BME280;4590;51.462;6.692;2022-11-04T09:39:23;100404.63;;;14.12;67.91
9110;BME280;4590;51.462;6.692;2022-11-04T09:47:12;100393.88;;;14.31;66.59
9110;BME280;4590;51.462;6.692;2022-11-04T09:49:40;100389.66;;;14.13;66.17
9110;BME280;4590;51.462;6.692;2022-11-04T09:52:20;100382.81;;;14.11;64.88
9110;BME280;4590;51.462;6.692;2022-11-04T09:55:11;100389.50;;;14.10;65.02
9110;BME280;4590;51.462;6.692;2022-11-04T09:57:40;100392.31;;;14.22;66.01
9110;BME280;4590;51.462;6.692;2022-11-04T10:00:14;100390.69;;;14.21;65.62
9110;BME280;4590;51.462;6.692;2022-11-04T10:08:38;100398.66;;;14.22;64.83
9110;BME280;4590;51.462;6.692;2022-11-04T10:25:15;100400.81;;;14.37;64.04
9110;BME280;4590;51.462;6.692;2022-11-04T10:27:45;100404.56;;;14.42;64.80
9110;BME280;4590;51.462;6.692;2022-11-04T10:32:56;100410.00;;;14.50;64.16
9110;BME280;4590;51.462;6.692;2022-11-04T10:35:55;100406.06;;;14.51;63.40
9110;BME280;4590;51.462;6.692;2022-11-04T10:38:47;100416.59;;;14.58;63.73
9110;BME280;4590;51.462;6.692;2022-11-04T10:44:00;100422.00;;;14.54;63.10
9110;BME280;4590;51.462;6.692;2022-11-04T10:46:51;100429.25;;;14.47;61.89
9110;BME280;4590;51.462;6.692;2022-11-04T10:49:40;100421.81;;;14.59;62.44
9110;BME280;4590;51.462;6.692;2022-11-04T10:52:08;100422.84;;;14.67;62.77
9110;BME280;4590;51.462;6.692;2022-11-04T10:54:40;100426.91;;;14.69;62.61
9110;BME280;4590;51.462;6.692;2022-11-04T10:57:06;100429.47;;;14.74;62.70
9110;BME280;4590;51.462;6.692;2022-11-04T11:02:16;100445.28;;;14.74;62.57
9110;BME280;4590;51.462;6.692;2022-11-04T11:04:41;100446.66;;;14.80;63.12
9110;BME280;4590;51.462;6.692;2022-11-04T11:07:11;100444.03;;;14.84;62.53
9110;BME280;4590;51.462;6.692;2022-11-04T11:14:36;100441.25;;;14.84;61.87
9110;BME280;4590;51.462;6.692;2022-11-04T11:22:31;100452.16;;;15.01;61.84
9110;BME280;4590;51.462;6.692;2022-11-04T11:27:58;100466.59;;;15.06;61.37
9110;BME280;4590;51.462;6.692;2022-11-04T11:32:57;100468.69;;;15.09;61.32
9110;BME280;4590;51.462;6.692;2022-11-04T11:35:30;100478.63;;;15.11;61.54
9110;BME280;4590;51.462;6.692;2022-11-04T11:37:57;100467.97;;;15.13;61.37
9110;BME280;4590;51.462;6.692;2022-11-04T11:40:34;100471.47;;;15.09;60.95
9110;BME280;4590;51.462;6.692;2022-11-04T11:43:03;100474.00;;;15.15;61.19
9110;BME280;4590;51.462;6.692;2022-11-04T11:45:30;100477.59;;;15.15;60.92
9110;BME280;4590;51.462;6.692;2022-11-04T11:47:56;100481.97;;;15.16;61.29
9110;BME280;4590;51.462;6.692;2022-11-04T11:50:27;100479.53;;;15.15;61.10
9110;BME280;4590;51.462;6.692;2022-11-04T11:53:17;100479.31;;;15.07;60.14
9110;BME280;4590;51.462;6.692;2022-11-04T11:55:50;100473.66;;;15.16;60.83
9110;BME280;4590;51.462;6.692;2022-11-04T11:58:33;100472.84;;;15.16;60.22
9110;BME280;4590;51.462;6.692;2022-11-04T12:01:04;100473.09;;;15.23;60.57
9110;BME280;4590;51.462;6.692;2022-11-04T12:03:44;100477.25;;;15.29;60.60
9110;BME280;4590;51.462;6.692;2022-11-04T12:09:16;100472.19;;;15.31;59.92
9110;BME280;4590;51.462;6.692;2022-11-04T12:23:23;100479.59;;;15.39;59.78
9110;BME280;4590;51.462;6.692;2022-11-04T12:26:15;100474.53;;;15.41;59.21
9110;BME280;4590;51.462;6.692;2022-11-04T12:39:53;100491.31;;;15.57;59.84
9110;BME280;4590;51.462;6.692;2022-11-04T12:44:52;100488.53;;;15.69;60.12
9110;BME280;4590;51.462;6.692;2022-11-04T12:55:39;100500.44;;;15.69;59.28
9110;BME280;4590;51.462;6.692;2022-11-04T12:58:12;100487.84;;;15.72;59.37
9110;BME280;4590;51.462;6.692;2022-11-04T13:00:41;100500.44;;;15.69;59.21
9110;BME280;4590;51.462;6.692;2022-11-04T13:06:10;100500.78;;;15.56;58.74
9110;BME280;4590;51.462;6.692;2022-11-04T13:08:48;100497.03;;;15.52;58.88
9110;BME280;4590;51.462;6.692;2022-11-04T13:11:27;100507.00;;;15.53;58.49
9110;BME280;4590;51.462;6.692;2022-11-04T13:14:09;100510.66;;;15.44;58.44
9110;BME280;4590;51.462;6.692;2022-11-04T13:16:39;100513.91;;;15.47;58.74
9110;BME280;4590;51.462;6.692;2022-11-04T13:19:36;100513.69;;;15.39;58.41
9110;BME280;4590;51.462;6.692;2022-11-04T13:22:02;100515.16;;;15.37;58.73
9110;BME280;4590;51.462;6.692;2022-11-04T13:24:31;100522.53;;;15.33;58.80
9110;BME280;4590;51.462;6.692;2022-11-04T13:27:02;100518.84;;;15.29;58.81
9110;BME280;4590;51.462;6.692;2022-11-04T13:29:29;100533.84;;;15.28;59.12
9110;BME280;4590;51.462;6.692;2022-11-04T13:32:04;100526.56;;;15.23;59.08
9110;BME280;4590;51.462;6.692;2022-11-04T13:39:57;100531.00;;;15.03;58.14
9110;BME280;4590;51.462;6.692;2022-11-04T13:42:51;100539.00;;;15.05;59.25
9110;BME280;4590;51.462;6.692;2022-11-04T13:45:19;100540.38;;;15.11;59.28
9110;BME280;4590;51.462;6.692;2022-11-04T13:47:52;100544.19;;;15.06;58.92
9110;BME280;4590;51.462;6.692;2022-11-04T13:50:32;100545.06;;;14.98;58.64
9110;BME280;4590;51.462;6.692;2022-11-04T13:52:58;100544.41;;;15.01;58.96
9110;BME280;4590;51.462;6.692;2022-11-04T13:55:23;100547.03;;;14.98;59.17
9110;BME280;4590;51.462;6.692;2022-11-04T13:57:56;100553.38;;;14.98;58.95
9110;BME280;4590;51.462;6.692;2022-11-04T14:00:27;100557.31;;;14.97;58.85
9110;BME280;4590;51.462;6.692;2022-11-04T14:02:57;100565.13;;;14.95;58.31
9110;BME280;4590;51.462;6.692;2022-11-04T14:16:00;100578.56;;;14.93;58.96
9110;BME280;4590;51.462;6.692;2022-11-04T14:18:28;100586.38;;;14.91;58.58
9110;BME280;4590;51.462;6.692;2022-11-04T14:23:26;100592.59;;;14.88;58.90
9110;BME280;4590;51.462;6.692;2022-11-04T14:26:08;100595.56;;;14.83;58.31
9110;BME280;4590;51.462;6.692;2022-11-04T14:28:35;100598.34;;;14.83;58.60
9110;BME280;4590;51.462;6.692;2022-11-04T14:31:06;100612.03;;;14.80;58.67
9110;BME280;4590;51.462;6.692;2022-11-04T14:33:49;100614.69;;;14.76;58.66
9110;BME280;4590;51.462;6.692;2022-11-04T14:38:43;100616.31;;;14.77;59.22
9110;BME280;4590;51.462;6.692;2022-11-04T14:41:31;100618.47;;;14.71;58.66
9110;BME280;4590;51.462;6.692;2022-11-04T14:44:18;100625.00;;;14.67;58.70
9110;BME280;4590;51.462;6.692;2022-11-04T14:46:47;100630.56;;;14.67;59.07
9110;BME280;4590;51.462;6.692;2022-11-04T14:54:55;100626.50;;;14.64;59.12
9110;BME280;4590;51.462;6.692;2022-11-04T14:57:22;100637.22;;;14.66;59.38
9110;BME280;4590;51.462;6.692;2022-11-04T14:59:48;100641.97;;;14.65;59.58
9110;BME280;4590;51.462;6.692;2022-11-04T15:02:23;100649.44;;;14.65;59.31
9110;BME280;4590;51.462;6.692;2022-11-04T15:04:56;100656.03;;;14.60;59.35
9110;BME280;4590;51.462;6.692;2022-11-04T15:07:42;100660.94;;;14.55;59.44
9110;BME280;4590;51.462;6.692;2022-11-04T15:10:21;100664.66;;;14.59;59.43
9110;BME280;4590;51.462;6.692;2022-11-04T15:12:49;100670.34;;;14.62;59.84
9110;BME280;4590;51.462;6.692;2022-11-04T15:15:32;100679.97;;;14.56;59.49
9110;BME280;4590;51.462;6.692;2022-11-04T15:18:01;100687.97;;;14.58;59.95
9110;BME280;4590;51.462;6.692;2022-11-04T15:20:30;100685.66;;;14.60;60.17
9110;BME280;4590;51.462;6.692;2022-11-04T15:22:57;100690.72;;;14.58;60.02
9110;BME280;4590;51.462;6.692;2022-11-04T15:25:24;100693.81;;;14.56;59.86
9110;BME280;4590;51.462;6.692;2022-11-04T15:27:49;100696.59;;;14.56;60.09
9110;BME280;4590;51.462;6.692;2022-11-04T15:30:27;100696.97;;;14.46;59.82
9110;BME280;4590;51.462;6.692;2022-11-04T15:33:01;100701.16;;;14.52;60.27
9110;BME280;4590;51.462;6.692;2022-11-04T15:35:31;100705.91;;;14.52;60.33
9110;BME280;4590;51.462;6.692;2022-11-04T15:37:59;100712.25;;;14.52;60.11
9110;BME280;4590;51.462;6.692;2022-11-04T15:40:27;100712.25;;;14.52;60.25
9110;BME280;4590;51.462;6.692;2022-11-04T15:42:53;100714.19;;;14.52;60.29
9110;BME280;4590;51.462;6.692;2022-11-04T15:45:37;100719.59;;;14.48;60.59
9110;BME280;4590;51.462;6.692;2022-11-04T15:48:31;100715.06;;;14.44;60.37
9110;BME280;4590;51.462;6.692;2022-11-04T15:51:10;100723.53;;;14.47;60.71